sensor_id;sensor_type;location;lat;lon;timestamp;temperature;humidity
2050;DHT22;8478;49.208;8.806;2023-04-03T00:01:14;11.50;99.90
2050;DHT22;8478;49.208;8.806;2023-04-03T00:03:40;11.50;99.90
2050;DHT22;8478;49.208;8.806;2023-04-03T00:06:11;11.50;99.90
2050;DHT22;8478;49.208;8.806;2023-04-03T00:08:37;11.50;99.90
2050;DHT22;8478;49.208;8.806;2023-04-03T00:11:04;11.50;99.90
2050;DHT22;8478;49.208;8.806;2023-04-03T00:13:30;11.50;99.90
2050;DHT22;8478;49.208;8.806;2023-04-03T00:15:56;11.40;99.90
2050;DHT22;8478;49.208;8.806;2023-04-03T00:18:22;11.50;99.90
2050;DHT22;8478;49.208;8.806;2023-04-03T00:20:49;11.40;99.90
2050;DHT22;8478;49.208;8.806;2023-04-03T00:23:14;11.40;99.90
2050;DHT22;8478;49.208;8.806;2023-04-03T00:25:40;11.50;99.90
2050;DHT22;8478;49.208;8.806;2023-04-03T00:28:06;11.40;99.90
2050;DHT22;8478;49.208;8.806;2023-04-03T00:30:32;11.40;99.90
2050;DHT22;8478;49.208;8.806;2023-04-03T00:32:58;11.40;99.90
2050;DHT22;8478;49.208;8.806;2023-04-03T00:35:24;11.40;99.90
2050;DHT22;8478;49.208;8.806;2023-04-03T00:37:54;11.40;99.90
2050;DHT22;8478;49.208;8.806;2023-04-03T00:40:23;11.40;99.90
2050;DHT22;8478;49.208;8.806;2023-04-03T00:42:52;11.40;99.90
2050;DHT22;8478;49.208;8.806;2023-04-03T00:45:56;11.40;99.90
2050;DHT22;8478;49.208;8.806;2023-04-03T00:48:34;11.40;99.90
2050;DHT22;8478;49.208;8.806;2023-04-03T00:51:03;11.40;99.90
2050;DHT22;8478;49.208;8.806;2023-04-03T00:53:37;11.40;99.90
2050;DHT22;8478;49.208;8.806;2023-04-03T00:56:06;11.40;99.90
2050;DHT22;8478;49.208;8.806;2023-04-03T00:58:38;11.40;99.90
2050;DHT22;8478;49.208;8.806;2023-04-03T01:01:08;11.40;99.90
2050;DHT22;8478;49.208;8.806;2023-04-03T01:03:34;11.40;99.90
2050;DHT22;8478;49.208;8.806;2023-04-03T01:06:00;11.40;99.90
2050;DHT22;8478;49.208;8.806;2023-04-03T01:08:26;11.40;99.90
2050;DHT22;8478;49.208;8.806;2023-04-03T01:10:52;11.40;99.90
2050;DHT22;8478;49.208;8.806;2023-04-03T01:13:24;11.40;99.90
2050;DHT22;8478;49.208;8.806;2023-04-03T01:15:51;11.30;99.90
2050;DHT22;8478;49.208;8.806;2023-04-03T01:18:17;11.40;99.90
2050;DHT22;8478;49.208;8.806;2023-04-03T01:21:05;11.30;99.90
2050;DHT22;8478;49.208;8.806;2023-04-03T01:26:02;11.30;99.90
2050;DHT22;8478;49.208;8.806;2023-04-03T01:28:31;11.30;99.90
2050;DHT22;8478;49.208;8.806;2023-04-03T01:33:28;11.30;99.90
2050;DHT22;8478;49.208;8.806;2023-04-03T01:35:54;11.30;99.90
2050;DHT22;8478;49.208;8.806;2023-04-03T01:38:20;11.30;99.90
2050;DHT22;8478;49.208;8.806;2023-04-03T01:40:46;11.30;99.90
2050;DHT22;8478;49.208;8.806;2023-04-03T01:43:12;11.30;99.90
2050;DHT22;8478;49.208;8.806;2023-04-03T01:45:37;11.30;99.90
2050;DHT22;8478;49.208;8.806;2023-04-03T01:48:03;11.30;99.90
2050;DHT22;8478;49.208;8.806;2023-04-03T01:50:29;11.30;99.90
2050;DHT22;8478;49.208;8.806;2023-04-03T01:52:55;11.30;99.90
2050;DHT22;8478;49.208;8.806;2023-04-03T01:55:21;11.30;99.90
2050;DHT22;8478;49.208;8.806;2023-04-03T01:57:47;11.30;99.90
2050;DHT22;8478;49.208;8.806;2023-04-03T02:00:13;11.30;99.90
2050;DHT22;8478;49.208;8.806;2023-04-03T02:02:39;11.30;99.90
2050;DHT22;8478;49.208;8.806;2023-04-03T02:05:05;11.30;99.90
2050;DHT22;8478;49.208;8.806;2023-04-03T02:07:31;11.30;99.90
2050;DHT22;8478;49.208;8.806;2023-04-03T02:09:57;11.20;99.90
2050;DHT22;8478;49.208;8.806;2023-04-03T02:12:22;11.20;99.90
2050;DHT22;8478;49.208;8.806;2023-04-03T02:14:48;11.20;99.90
2050;DHT22;8478;49.208;8.806;2023-04-03T02:17:13;11.20;99.90
2050;DHT22;8478;49.208;8.806;2023-04-03T02:19:40;11.20;99.90
2050;DHT22;8478;49.208;8.806;2023-04-03T02:22:06;11.20;99.90
2050;DHT22;8478;49.208;8.806;2023-04-03T02:24:32;11.20;99.90
2050;DHT22;8478;49.208;8.806;2023-04-03T02:26:58;11.20;99.90
2050;DHT22;8478;49.208;8.806;2023-04-03T02:29:24;11.20;99.90
2050;DHT22;8478;49.208;8.806;2023-04-03T02:31:50;11.20;99.90
2050;DHT22;8478;49.208;8.806;2023-04-03T02:34:16;11.20;99.90
2050;DHT22;8478;49.208;8.806;2023-04-03T02:36:42;11.20;99.90
2050;DHT22;8478;49.208;8.806;2023-04-03T02:39:08;11.20;99.90
2050;DHT22;8478;49.208;8.806;2023-04-03T02:41:33;11.20;99.90
2050;DHT22;8478;49.208;8.806;2023-04-03T02:44:01;11.20;99.90
2050;DHT22;8478;49.208;8.806;2023-04-03T02:46:27;11.20;99.90
2050;DHT22;8478;49.208;8.806;2023-04-03T02:48:53;11.20;99.90
2050;DHT22;8478;49.208;8.806;2023-04-03T02:51:19;11.20;99.90
2050;DHT22;8478;49.208;8.806;2023-04-03T02:53:45;11.20;99.90
2050;DHT22;8478;49.208;8.806;2023-04-03T02:56:10;11.20;99.90
2050;DHT22;8478;49.208;8.806;2023-04-03T02:58:36;11.20;99.90
2050;DHT22;8478;49.208;8.806;2023-04-03T03:01:02;11.20;99.90
2050;DHT22;8478;49.208;8.806;2023-04-03T03:03:28;11.20;99.90
2050;DHT22;8478;49.208;8.806;2023-04-03T03:06:04;11.20;99.90
2050;DHT22;8478;49.208;8.806;2023-04-03T03:08:30;11.10;99.90
2050;DHT22;8478;49.208;8.806;2023-04-03T03:10:56;11.20;99.90
2050;DHT22;8478;49.208;8.806;2023-04-03T03:13:22;11.10;99.90
2050;DHT22;8478;49.208;8.806;2023-04-03T03:15:48;11.10;99.90
2050;DHT22;8478;49.208;8.806;2023-04-03T03:18:13;11.10;99.90
2050;DHT22;8478;49.208;8.806;2023-04-03T03:20:39;11.10;99.90
2050;DHT22;8478;49.208;8.806;2023-04-03T03:23:05;11.10;99.90
2050;DHT22;8478;49.208;8.806;2023-04-03T03:25:31;11.10;99.90
2050;DHT22;8478;49.208;8.806;2023-04-03T03:27:56;11.10;99.90
2050;DHT22;8478;49.208;8.806;2023-04-03T03:30:22;11.10;99.90
2050;DHT22;8478;49.208;8.806;2023-04-03T03:32:48;11.10;99.90
2050;DHT22;8478;49.208;8.806;2023-04-03T03:35:13;11.10;99.90
2050;DHT22;8478;49.208;8.806;2023-04-03T03:37:39;11.10;99.90
2050;DHT22;8478;49.208;8.806;2023-04-03T03:40:05;11.10;99.90
2050;DHT22;8478;49.208;8.806;2023-04-03T03:42:31;11.10;99.90
2050;DHT22;8478;49.208;8.806;2023-04-03T03:44:57;11.10;99.90
2050;DHT22;8478;49.208;8.806;2023-04-03T03:47:22;11.10;99.90
2050;DHT22;8478;49.208;8.806;2023-04-03T03:49:48;11.10;99.90
2050;DHT22;8478;49.208;8.806;2023-04-03T03:52:14;11.10;99.90
2050;DHT22;8478;49.208;8.806;2023-04-03T03:54:39;11.10;99.90
2050;DHT22;8478;49.208;8.806;2023-04-03T03:57:05;11.10;99.90
2050;DHT22;8478;49.208;8.806;2023-04-03T03:59:31;11.10;99.90
2050;DHT22;8478;49.208;8.806;2023-04-03T04:01:57;11.10;99.90
2050;DHT22;8478;49.208;8.806;2023-04-03T04:04:22;11.10;99.90
2050;DHT22;8478;49.208;8.806;2023-04-03T04:06:48;11.10;99.90
2050;DHT22;8478;49.208;8.806;2023-04-03T04:09:13;11.10;99.90
2050;DHT22;8478;49.208;8.806;2023-04-03T04:11:39;11.10;99.90
2050;DHT22;8478;49.208;8.806;2023-04-03T04:14:06;11.10;99.90
2050;DHT22;8478;49.208;8.806;2023-04-03T04:16:32;11.10;99.90
2050;DHT22;8478;49.208;8.806;2023-04-03T04:18:57;11.00;99.90
2050;DHT22;8478;49.208;8.806;2023-04-03T04:21:23;11.10;99.90
2050;DHT22;8478;49.208;8.806;2023-04-03T04:23:49;11.00;99.90
2050;DHT22;8478;49.208;8.806;2023-04-03T04:26:15;11.00;99.90
2050;DHT22;8478;49.208;8.806;2023-04-03T04:28:40;11.00;99.90
2050;DHT22;8478;49.208;8.806;2023-04-03T04:31:06;11.00;99.90
2050;DHT22;8478;49.208;8.806;2023-04-03T04:33:31;11.00;99.90
2050;DHT22;8478;49.208;8.806;2023-04-03T04:35:57;11.00;99.90
2050;DHT22;8478;49.208;8.806;2023-04-03T04:38:23;11.00;99.90
2050;DHT22;8478;49.208;8.806;2023-04-03T04:40:49;11.00;99.90
2050;DHT22;8478;49.208;8.806;2023-04-03T04:43:14;11.00;99.90
2050;DHT22;8478;49.208;8.806;2023-04-03T04:45:41;11.00;99.90
2050;DHT22;8478;49.208;8.806;2023-04-03T04:48:07;11.00;99.90
2050;DHT22;8478;49.208;8.806;2023-04-03T04:50:33;11.00;99.90
2050;DHT22;8478;49.208;8.806;2023-04-03T04:52:58;11.00;99.90
2050;DHT22;8478;49.208;8.806;2023-04-03T04:55:24;11.00;99.90
2050;DHT22;8478;49.208;8.806;2023-04-03T04:57:50;11.00;99.90
2050;DHT22;8478;49.208;8.806;2023-04-03T05:00:16;11.00;99.90
2050;DHT22;8478;49.208;8.806;2023-04-03T05:02:42;11.00;99.90
2050;DHT22;8478;49.208;8.806;2023-04-03T05:05:08;11.00;99.90
2050;DHT22;8478;49.208;8.806;2023-04-03T05:07:34;11.00;99.90
2050;DHT22;8478;49.208;8.806;2023-04-03T05:10:01;10.90;99.90
2050;DHT22;8478;49.208;8.806;2023-04-03T05:12:28;11.00;99.90
2050;DHT22;8478;49.208;8.806;2023-04-03T05:14:54;10.90;99.90
2050;DHT22;8478;49.208;8.806;2023-04-03T05:17:20;10.90;99.90
2050;DHT22;8478;49.208;8.806;2023-04-03T05:19:46;11.00;99.90
2050;DHT22;8478;49.208;8.806;2023-04-03T05:22:11;10.90;99.90
2050;DHT22;8478;49.208;8.806;2023-04-03T05:24:37;10.90;99.90
2050;DHT22;8478;49.208;8.806;2023-04-03T05:27:03;10.90;99.90
2050;DHT22;8478;49.208;8.806;2023-04-03T05:29:29;10.90;99.90
2050;DHT22;8478;49.208;8.806;2023-04-03T05:31:54;10.90;99.90
2050;DHT22;8478;49.208;8.806;2023-04-03T05:34:20;10.90;99.90
2050;DHT22;8478;49.208;8.806;2023-04-03T05:36:46;10.90;99.90
2050;DHT22;8478;49.208;8.806;2023-04-03T05:39:12;10.90;99.90
2050;DHT22;8478;49.208;8.806;2023-04-03T05:41:37;10.90;99.90
2050;DHT22;8478;49.208;8.806;2023-04-03T05:44:03;10.90;99.90
2050;DHT22;8478;49.208;8.806;2023-04-03T05:46:29;10.90;99.90
2050;DHT22;8478;49.208;8.806;2023-04-03T05:48:55;10.90;99.90
2050;DHT22;8478;49.208;8.806;2023-04-03T05:51:27;10.90;99.90
2050;DHT22;8478;49.208;8.806;2023-04-03T05:53:59;10.90;99.90
2050;DHT22;8478;49.208;8.806;2023-04-03T05:56:26;10.90;99.90
2050;DHT22;8478;49.208;8.806;2023-04-03T05:58:52;10.90;99.90
2050;DHT22;8478;49.208;8.806;2023-04-03T06:01:18;10.90;99.90
2050;DHT22;8478;49.208;8.806;2023-04-03T06:03:43;10.90;99.90
2050;DHT22;8478;49.208;8.806;2023-04-03T06:06:13;10.90;99.90
2050;DHT22;8478;49.208;8.806;2023-04-03T06:08:39;10.90;99.90
2050;DHT22;8478;49.208;8.806;2023-04-03T06:11:05;10.90;99.90
2050;DHT22;8478;49.208;8.806;2023-04-03T06:13:31;10.80;99.90
2050;DHT22;8478;49.208;8.806;2023-04-03T06:15:57;10.90;99.90
2050;DHT22;8478;49.208;8.806;2023-04-03T06:18:23;10.80;99.90
2050;DHT22;8478;49.208;8.806;2023-04-03T06:20:49;10.90;99.90
2050;DHT22;8478;49.208;8.806;2023-04-03T06:23:15;10.90;99.90
2050;DHT22;8478;49.208;8.806;2023-04-03T06:25:41;10.90;99.90
2050;DHT22;8478;49.208;8.806;2023-04-03T06:28:08;10.80;99.90
2050;DHT22;8478;49.208;8.806;2023-04-03T06:30:36;10.80;99.90
2050;DHT22;8478;49.208;8.806;2023-04-03T06:33:02;10.80;99.90
2050;DHT22;8478;49.208;8.806;2023-04-03T06:35:28;10.80;99.90
2050;DHT22;8478;49.208;8.806;2023-04-03T06:37:55;10.80;99.90
2050;DHT22;8478;49.208;8.806;2023-04-03T06:40:24;10.80;99.90
2050;DHT22;8478;49.208;8.806;2023-04-03T06:42:50;10.80;99.90
2050;DHT22;8478;49.208;8.806;2023-04-03T06:45:16;10.80;99.90
2050;DHT22;8478;49.208;8.806;2023-04-03T06:47:43;10.80;99.90
2050;DHT22;8478;49.208;8.806;2023-04-03T06:50:10;10.80;99.90
2050;DHT22;8478;49.208;8.806;2023-04-03T06:52:37;10.80;99.90
2050;DHT22;8478;49.208;8.806;2023-04-03T06:55:03;10.80;99.90
2050;DHT22;8478;49.208;8.806;2023-04-03T06:57:30;10.80;99.90
2050;DHT22;8478;49.208;8.806;2023-04-03T06:59:56;10.80;99.90
2050;DHT22;8478;49.208;8.806;2023-04-03T07:02:21;10.80;99.90
2050;DHT22;8478;49.208;8.806;2023-04-03T07:04:47;10.80;99.90
2050;DHT22;8478;49.208;8.806;2023-04-03T07:07:13;10.80;99.90
2050;DHT22;8478;49.208;8.806;2023-04-03T07:09:38;10.80;99.90
2050;DHT22;8478;49.208;8.806;2023-04-03T07:12:04;10.80;99.90
2050;DHT22;8478;49.208;8.806;2023-04-03T07:14:30;10.80;99.90
2050;DHT22;8478;49.208;8.806;2023-04-03T07:16:56;10.80;99.90
2050;DHT22;8478;49.208;8.806;2023-04-03T07:19:21;10.80;99.90
2050;DHT22;8478;49.208;8.806;2023-04-03T07:21:49;10.80;99.90
2050;DHT22;8478;49.208;8.806;2023-04-03T07:24:15;10.80;99.90
2050;DHT22;8478;49.208;8.806;2023-04-03T07:26:41;10.80;99.90
2050;DHT22;8478;49.208;8.806;2023-04-03T07:29:07;10.80;99.90
2050;DHT22;8478;49.208;8.806;2023-04-03T07:31:32;10.80;99.90
2050;DHT22;8478;49.208;8.806;2023-04-03T07:33:59;10.80;99.90
2050;DHT22;8478;49.208;8.806;2023-04-03T07:36:25;10.80;99.90
2050;DHT22;8478;49.208;8.806;2023-04-03T07:38:50;10.80;99.90
2050;DHT22;8478;49.208;8.806;2023-04-03T07:41:18;10.80;99.90
2050;DHT22;8478;49.208;8.806;2023-04-03T07:43:45;10.80;99.90
2050;DHT22;8478;49.208;8.806;2023-04-03T07:46:12;10.80;99.90
2050;DHT22;8478;49.208;8.806;2023-04-03T07:48:38;10.80;99.90
2050;DHT22;8478;49.208;8.806;2023-04-03T07:51:04;10.90;99.90
2050;DHT22;8478;49.208;8.806;2023-04-03T07:53:31;10.80;99.90
2050;DHT22;8478;49.208;8.806;2023-04-03T07:55:58;10.80;99.90
2050;DHT22;8478;49.208;8.806;2023-04-03T07:58:24;10.80;99.90
2050;DHT22;8478;49.208;8.806;2023-04-03T08:00:50;10.80;99.90
2050;DHT22;8478;49.208;8.806;2023-04-03T08:03:16;10.80;99.90
2050;DHT22;8478;49.208;8.806;2023-04-03T08:05:43;10.80;99.90
2050;DHT22;8478;49.208;8.806;2023-04-03T08:08:11;10.80;99.90
2050;DHT22;8478;49.208;8.806;2023-04-03T08:10:37;10.80;99.90
2050;DHT22;8478;49.208;8.806;2023-04-03T08:13:04;10.80;99.90
2050;DHT22;8478;49.208;8.806;2023-04-03T08:15:30;10.70;99.90
2050;DHT22;8478;49.208;8.806;2023-04-03T08:17:56;10.80;99.90
2050;DHT22;8478;49.208;8.806;2023-04-03T08:20:22;10.80;99.90
2050;DHT22;8478;49.208;8.806;2023-04-03T08:22:47;10.80;99.90
2050;DHT22;8478;49.208;8.806;2023-04-03T08:25:13;10.80;99.90
2050;DHT22;8478;49.208;8.806;2023-04-03T08:27:39;10.80;99.90
2050;DHT22;8478;49.208;8.806;2023-04-03T08:30:05;10.80;99.90
2050;DHT22;8478;49.208;8.806;2023-04-03T08:32:33;10.80;99.90
2050;DHT22;8478;49.208;8.806;2023-04-03T08:34:59;10.80;99.90
2050;DHT22;8478;49.208;8.806;2023-04-03T08:37:26;10.80;99.90
2050;DHT22;8478;49.208;8.806;2023-04-03T08:39:52;10.80;99.90
2050;DHT22;8478;49.208;8.806;2023-04-03T08:45:12;10.80;99.90
2050;DHT22;8478;49.208;8.806;2023-04-03T08:47:56;10.80;99.90
2050;DHT22;8478;49.208;8.806;2023-04-03T08:50:30;10.80;99.90
2050;DHT22;8478;49.208;8.806;2023-04-03T08:52:58;10.80;99.90
2050;DHT22;8478;49.208;8.806;2023-04-03T08:55:40;10.80;99.90
2050;DHT22;8478;49.208;8.806;2023-04-03T08:58:24;10.80;99.90
2050;DHT22;8478;49.208;8.806;2023-04-03T09:00:58;10.80;99.90
2050;DHT22;8478;49.208;8.806;2023-04-03T09:03:24;10.80;99.90
2050;DHT22;8478;49.208;8.806;2023-04-03T09:11:35;10.80;99.90
2050;DHT22;8478;49.208;8.806;2023-04-03T09:16:59;10.80;99.90
2050;DHT22;8478;49.208;8.806;2023-04-03T09:19:31;10.80;99.90
2050;DHT22;8478;49.208;8.806;2023-04-03T09:22:21;10.80;99.90
2050;DHT22;8478;49.208;8.806;2023-04-03T09:27:33;10.70;99.90
2050;DHT22;8478;49.208;8.806;2023-04-03T09:29:59;10.80;99.90
2050;DHT22;8478;49.208;8.806;2023-04-03T09:34:55;10.80;99.90
2050;DHT22;8478;49.208;8.806;2023-04-03T09:37:43;10.70;99.90
2050;DHT22;8478;49.208;8.806;2023-04-03T09:42:58;10.70;99.90
2050;DHT22;8478;49.208;8.806;2023-04-03T09:48:24;10.70;99.90
2050;DHT22;8478;49.208;8.806;2023-04-03T09:53:37;10.70;99.90
2050;DHT22;8478;49.208;8.806;2023-04-03T09:56:18;10.70;99.90
2050;DHT22;8478;49.208;8.806;2023-04-03T10:04:11;10.70;99.90
2050;DHT22;8478;49.208;8.806;2023-04-03T10:06:43;10.80;99.90
2050;DHT22;8478;49.208;8.806;2023-04-03T10:09:26;10.80;99.90
2050;DHT22;8478;49.208;8.806;2023-04-03T10:12:05;10.70;99.90
2050;DHT22;8478;49.208;8.806;2023-04-03T10:14:37;10.70;99.90
2050;DHT22;8478;49.208;8.806;2023-04-03T10:28:23;10.70;99.90
2050;DHT22;8478;49.208;8.806;2023-04-03T10:46:52;10.70;99.90
2050;DHT22;8478;49.208;8.806;2023-04-03T10:49:37;10.70;99.90
2050;DHT22;8478;49.208;8.806;2023-04-03T10:55:15;10.70;99.90
2050;DHT22;8478;49.208;8.806;2023-04-03T10:57:45;10.70;99.90
2050;DHT22;8478;49.208;8.806;2023-04-03T11:00:20;10.70;99.90
2050;DHT22;8478;49.208;8.806;2023-04-03T11:02:58;10.70;99.90
2050;DHT22;8478;49.208;8.806;2023-04-03T11:05:43;10.70;99.90
2050;DHT22;8478;49.208;8.806;2023-04-03T11:08:55;10.70;99.90
2050;DHT22;8478;49.208;8.806;2023-04-03T11:11:27;10.70;99.90
2050;DHT22;8478;49.208;8.806;2023-04-03T11:14:01;10.70;99.90
2050;DHT22;8478;49.208;8.806;2023-04-03T11:16:30;10.70;99.90
2050;DHT22;8478;49.208;8.806;2023-04-03T11:19:03;10.70;99.90
2050;DHT22;8478;49.208;8.806;2023-04-03T11:21:39;10.70;99.90
2050;DHT22;8478;49.208;8.806;2023-04-03T11:24:20;10.70;99.90
2050;DHT22;8478;49.208;8.806;2023-04-03T11:26:49;10.70;99.90
2050;DHT22;8478;49.208;8.806;2023-04-03T11:29:20;10.70;99.90
2050;DHT22;8478;49.208;8.806;2023-04-03T11:32:09;10.70;99.90
2050;DHT22;8478;49.208;8.806;2023-04-03T11:34:44;10.70;99.90
2050;DHT22;8478;49.208;8.806;2023-04-03T11:37:24;10.70;99.90
2050;DHT22;8478;49.208;8.806;2023-04-03T11:40:02;10.70;99.90
2050;DHT22;8478;49.208;8.806;2023-04-03T11:42:40;10.70;99.90
2050;DHT22;8478;49.208;8.806;2023-04-03T11:47:49;10.70;99.90
2050;DHT22;8478;49.208;8.806;2023-04-03T12:00:48;10.70;99.90
2050;DHT22;8478;49.208;8.806;2023-04-03T12:05:56;10.80;99.90
2050;DHT22;8478;49.208;8.806;2023-04-03T12:08:38;10.70;99.90
2050;DHT22;8478;49.208;8.806;2023-04-03T12:19:00;10.70;99.90
2050;DHT22;8478;49.208;8.806;2023-04-03T12:24:05;10.80;99.90
2050;DHT22;8478;49.208;8.806;2023-04-03T12:46:22;10.70;99.90
2050;DHT22;8478;49.208;8.806;2023-04-03T12:51:35;10.70;99.90
2050;DHT22;8478;49.208;8.806;2023-04-03T12:54:22;10.80;99.90
2050;DHT22;8478;49.208;8.806;2023-04-03T12:56:49;10.80;99.90
2050;DHT22;8478;49.208;8.806;2023-04-03T12:59:20;10.80;99.90
2050;DHT22;8478;49.208;8.806;2023-04-03T13:01:54;10.80;99.90
2050;DHT22;8478;49.208;8.806;2023-04-03T13:04:20;10.80;99.90
2050;DHT22;8478;49.208;8.806;2023-04-03T13:06:46;10.80;99.90
2050;DHT22;8478;49.208;8.806;2023-04-03T13:09:28;10.80;99.90
2050;DHT22;8478;49.208;8.806;2023-04-03T13:14:25;10.80;99.90
2050;DHT22;8478;49.208;8.806;2023-04-03T13:16:59;10.80;99.90
2050;DHT22;8478;49.208;8.806;2023-04-03T13:19:27;10.80;99.90
2050;DHT22;8478;49.208;8.806;2023-04-03T13:22:01;10.80;99.90
2050;DHT22;8478;49.208;8.806;2023-04-03T13:24:29;10.80;99.90
2050;DHT22;8478;49.208;8.806;2023-04-03T13:26:56;10.80;99.90
2050;DHT22;8478;49.208;8.806;2023-04-03T13:29:27;10.80;99.90
2050;DHT22;8478;49.208;8.806;2023-04-03T13:31:55;10.80;99.90
2050;DHT22;8478;49.208;8.806;2023-04-03T13:34:23;10.80;99.90
2050;DHT22;8478;49.208;8.806;2023-04-03T13:36:58;10.80;99.90
2050;DHT22;8478;49.208;8.806;2023-04-03T13:39:30;10.80;99.90
2050;DHT22;8478;49.208;8.806;2023-04-03T13:41:58;10.80;99.90
2050;DHT22;8478;49.208;8.806;2023-04-03T13:44:34;10.80;99.90
2050;DHT22;8478;49.208;8.806;2023-04-03T13:47:13;10.80;99.90
2050;DHT22;8478;49.208;8.806;2023-04-03T13:49:43;10.80;99.90
2050;DHT22;8478;49.208;8.806;2023-04-03T13:52:30;10.80;99.90
2050;DHT22;8478;49.208;8.806;2023-04-03T13:55:20;10.80;99.90
2050;DHT22;8478;49.208;8.806;2023-04-03T13:57:56;10.80;99.90
2050;DHT22;8478;49.208;8.806;2023-04-03T14:03:59;10.80;99.90
2050;DHT22;8478;49.208;8.806;2023-04-03T14:06:26;10.80;99.90
2050;DHT22;8478;49.208;8.806;2023-04-03T14:08:52;10.80;99.90
2050;DHT22;8478;49.208;8.806;2023-04-03T14:11:29;10.80;99.90
2050;DHT22;8478;49.208;8.806;2023-04-03T14:13:59;10.80;99.90
2050;DHT22;8478;49.208;8.806;2023-04-03T14:16:30;10.80;99.90
2050;DHT22;8478;49.208;8.806;2023-04-03T14:18:56;10.80;99.90
2050;DHT22;8478;49.208;8.806;2023-04-03T14:21:22;10.80;99.90
2050;DHT22;8478;49.208;8.806;2023-04-03T14:23:48;10.80;99.90
2050;DHT22;8478;49.208;8.806;2023-04-03T14:26:22;10.80;99.90
2050;DHT22;8478;49.208;8.806;2023-04-03T14:28:52;10.80;99.90
2050;DHT22;8478;49.208;8.806;2023-04-03T14:31:19;10.80;99.90
2050;DHT22;8478;49.208;8.806;2023-04-03T14:33:46;10.80;99.90
2050;DHT22;8478;49.208;8.806;2023-04-03T14:36:14;10.80;99.90
2050;DHT22;8478;49.208;8.806;2023-04-03T14:38:41;10.80;99.90
2050;DHT22;8478;49.208;8.806;2023-04-03T14:41:10;10.80;99.90
2050;DHT22;8478;49.208;8.806;2023-04-03T14:43:36;10.80;99.90
2050;DHT22;8478;49.208;8.806;2023-04-03T14:46:01;10.80;99.90
2050;DHT22;8478;49.208;8.806;2023-04-03T14:48:28;10.80;99.90
2050;DHT22;8478;49.208;8.806;2023-04-03T14:50:55;10.80;99.90
2050;DHT22;8478;49.208;8.806;2023-04-03T14:53:21;10.80;99.90
2050;DHT22;8478;49.208;8.806;2023-04-03T14:55:52;10.80;99.90
2050;DHT22;8478;49.208;8.806;2023-04-03T14:58:20;10.80;99.90
2050;DHT22;8478;49.208;8.806;2023-04-03T15:00:46;10.80;99.90
2050;DHT22;8478;49.208;8.806;2023-04-03T15:03:17;10.80;99.90
2050;DHT22;8478;49.208;8.806;2023-04-03T15:05:44;10.80;99.90
2050;DHT22;8478;49.208;8.806;2023-04-03T15:08:28;10.80;99.90
2050;DHT22;8478;49.208;8.806;2023-04-03T15:10:55;10.80;99.90
2050;DHT22;8478;49.208;8.806;2023-04-03T15:13:22;10.80;99.90
2050;DHT22;8478;49.208;8.806;2023-04-03T15:15:48;10.80;99.90
2050;DHT22;8478;49.208;8.806;2023-04-03T15:18:25;10.80;99.90
2050;DHT22;8478;49.208;8.806;2023-04-03T15:20:54;10.80;99.90
2050;DHT22;8478;49.208;8.806;2023-04-03T15:23:21;10.80;99.90
2050;DHT22;8478;49.208;8.806;2023-04-03T15:25:52;10.80;99.90
2050;DHT22;8478;49.208;8.806;2023-04-03T15:28:30;10.80;99.90
2050;DHT22;8478;49.208;8.806;2023-04-03T15:30:56;10.80;99.90
2050;DHT22;8478;49.208;8.806;2023-04-03T15:33:22;10.80;99.90
2050;DHT22;8478;49.208;8.806;2023-04-03T15:35:48;10.80;99.90
2050;DHT22;8478;49.208;8.806;2023-04-03T15:38:14;10.80;99.90
2050;DHT22;8478;49.208;8.806;2023-04-03T15:40:40;10.80;99.90
2050;DHT22;8478;49.208;8.806;2023-04-03T15:43:06;10.80;99.90
2050;DHT22;8478;49.208;8.806;2023-04-03T15:45:33;10.80;99.90
2050;DHT22;8478;49.208;8.806;2023-04-03T15:48:01;10.80;99.90
2050;DHT22;8478;49.208;8.806;2023-04-03T15:50:26;10.80;99.90
2050;DHT22;8478;49.208;8.806;2023-04-03T15:52:53;10.80;99.90
2050;DHT22;8478;49.208;8.806;2023-04-03T15:55:24;10.80;99.90
2050;DHT22;8478;49.208;8.806;2023-04-03T15:57:51;10.80;99.90
2050;DHT22;8478;49.208;8.806;2023-04-03T16:00:17;10.80;99.90
2050;DHT22;8478;49.208;8.806;2023-04-03T16:02:45;10.80;99.90
2050;DHT22;8478;49.208;8.806;2023-04-03T16:05:12;10.80;99.90
2050;DHT22;8478;49.208;8.806;2023-04-03T16:07:39;10.80;99.90
2050;DHT22;8478;49.208;8.806;2023-04-03T16:10:06;10.80;99.90
2050;DHT22;8478;49.208;8.806;2023-04-03T16:12:32;10.80;99.90
2050;DHT22;8478;49.208;8.806;2023-04-03T16:14:58;10.80;99.90
2050;DHT22;8478;49.208;8.806;2023-04-03T16:17:24;10.80;99.90
2050;DHT22;8478;49.208;8.806;2023-04-03T16:19:51;10.80;99.90
2050;DHT22;8478;49.208;8.806;2023-04-03T16:22:17;10.80;99.90
2050;DHT22;8478;49.208;8.806;2023-04-03T16:24:43;10.80;99.90
2050;DHT22;8478;49.208;8.806;2023-04-03T16:27:08;10.80;99.90
2050;DHT22;8478;49.208;8.806;2023-04-03T16:29:34;10.80;99.90
2050;DHT22;8478;49.208;8.806;2023-04-03T16:32:01;10.80;99.90
2050;DHT22;8478;49.208;8.806;2023-04-03T16:34:27;10.80;99.90
2050;DHT22;8478;49.208;8.806;2023-04-03T16:36:55;10.80;99.90
2050;DHT22;8478;49.208;8.806;2023-04-03T16:39:21;10.80;99.90
2050;DHT22;8478;49.208;8.806;2023-04-03T16:41:46;10.70;99.90
2050;DHT22;8478;49.208;8.806;2023-04-03T16:44:12;10.70;99.90
2050;DHT22;8478;49.208;8.806;2023-04-03T16:46:39;10.80;99.90
2050;DHT22;8478;49.208;8.806;2023-04-03T16:49:04;10.70;99.90
2050;DHT22;8478;49.208;8.806;2023-04-03T16:51:30;10.80;99.90
2050;DHT22;8478;49.208;8.806;2023-04-03T16:53:57;10.80;99.90
2050;DHT22;8478;49.208;8.806;2023-04-03T16:56:22;10.80;99.90
2050;DHT22;8478;49.208;8.806;2023-04-03T16:58:48;10.80;99.90
2050;DHT22;8478;49.208;8.806;2023-04-03T17:01:17;10.80;99.90
2050;DHT22;8478;49.208;8.806;2023-04-03T17:03:43;10.80;99.90
2050;DHT22;8478;49.208;8.806;2023-04-03T17:06:11;10.80;99.90
2050;DHT22;8478;49.208;8.806;2023-04-03T17:08:42;10.80;99.90
2050;DHT22;8478;49.208;8.806;2023-04-03T17:11:08;10.70;99.90
2050;DHT22;8478;49.208;8.806;2023-04-03T17:13:34;10.80;99.90
2050;DHT22;8478;49.208;8.806;2023-04-03T17:16:02;10.80;99.90
2050;DHT22;8478;49.208;8.806;2023-04-03T17:18:30;10.80;99.90
2050;DHT22;8478;49.208;8.806;2023-04-03T17:20:56;10.80;99.90
2050;DHT22;8478;49.208;8.806;2023-04-03T17:23:24;10.80;99.90
2050;DHT22;8478;49.208;8.806;2023-04-03T17:25:51;10.80;99.90
2050;DHT22;8478;49.208;8.806;2023-04-03T17:28:16;10.70;99.90
2050;DHT22;8478;49.208;8.806;2023-04-03T17:30:42;10.70;99.90
2050;DHT22;8478;49.208;8.806;2023-04-03T17:33:07;10.70;99.90
2050;DHT22;8478;49.208;8.806;2023-04-03T17:35:33;10.70;99.90
2050;DHT22;8478;49.208;8.806;2023-04-03T17:37:59;10.70;99.90
2050;DHT22;8478;49.208;8.806;2023-04-03T17:40:24;10.70;99.90
2050;DHT22;8478;49.208;8.806;2023-04-03T17:42:50;10.70;99.90
2050;DHT22;8478;49.208;8.806;2023-04-03T17:45:16;10.70;99.90
2050;DHT22;8478;49.208;8.806;2023-04-03T17:47:42;10.70;99.90
2050;DHT22;8478;49.208;8.806;2023-04-03T17:50:08;10.70;99.90
2050;DHT22;8478;49.208;8.806;2023-04-03T17:52:34;10.70;99.90
2050;DHT22;8478;49.208;8.806;2023-04-03T17:54:59;10.70;99.90
2050;DHT22;8478;49.208;8.806;2023-04-03T17:57:25;10.70;99.90
2050;DHT22;8478;49.208;8.806;2023-04-03T17:59:51;10.70;99.90
2050;DHT22;8478;49.208;8.806;2023-04-03T18:02:18;10.70;99.90
2050;DHT22;8478;49.208;8.806;2023-04-03T18:04:44;10.70;99.90
2050;DHT22;8478;49.208;8.806;2023-04-03T18:07:10;10.70;99.90
2050;DHT22;8478;49.208;8.806;2023-04-03T18:09:36;10.70;99.90